sensor_id;sensor_type;location;lat;lon;timestamp;P1;durP1;ratioP1;P2;durP2;ratioP2
16520;SDS011;8373;48.110;11.522;2023-06-19T00:00:00;0.80;;;0.80;;
16520;SDS011;8373;48.110;11.522;2023-06-19T00:02:44;0.67;;;0.67;;
16520;SDS011;8373;48.110;11.522;2023-06-19T00:05:28;0.90;;;0.90;;
16520;SDS011;8373;48.110;11.522;2023-06-19T00:08:12;1.10;;;1.10;;
16520;SDS011;8373;48.110;11.522;2023-06-19T00:10:58;0.80;;;0.80;;
16520;SDS011;8373;48.110;11.522;2023-06-19T00:13:48;1.10;;;1.10;;
16520;SDS011;8373;48.110;11.522;2023-06-19T00:16:45;0.70;;;0.70;;
16520;SDS011;8373;48.110;11.522;2023-06-19T00:19:22;0.60;;;0.60;;
16520;SDS011;8373;48.110;11.522;2023-06-19T00:22:12;0.70;;;0.70;;
16520;SDS011;8373;48.110;11.522;2023-06-19T00:25:38;0.73;;;0.73;;
16520;SDS011;8373;48.110;11.522;2023-06-19T00:28:19;0.70;;;0.70;;
16520;SDS011;8373;48.110;11.522;2023-06-19T00:31:08;0.87;;;0.87;;
16520;SDS011;8373;48.110;11.522;2023-06-19T00:33:52;0.80;;;0.80;;
16520;SDS011;8373;48.110;11.522;2023-06-19T00:36:27;0.77;;;0.77;;
16520;SDS011;8373;48.110;11.522;2023-06-19T00:39:48;0.70;;;0.70;;
16520;SDS011;8373;48.110;11.522;2023-06-19T00:42:21;0.60;;;0.60;;
16520;SDS011;8373;48.110;11.522;2023-06-19T00:45:31;0.73;;;0.73;;
16520;SDS011;8373;48.110;11.522;2023-06-19T00:48:36;0.80;;;0.80;;
16520;SDS011;8373;48.110;11.522;2023-06-19T00:55:14;0.80;;;0.80;;
16520;SDS011;8373;48.110;11.522;2023-06-19T00:58:22;0.93;;;0.93;;
16520;SDS011;8373;48.110;11.522;2023-06-19T01:01:44;0.70;;;0.70;;
16520;SDS011;8373;48.110;11.522;2023-06-19T01:05:24;0.80;;;0.80;;
16520;SDS011;8373;48.110;11.522;2023-06-19T01:08:50;0.63;;;0.63;;
16520;SDS011;8373;48.110;11.522;2023-06-19T01:18:57;0.57;;;0.57;;
16520;SDS011;8373;48.110;11.522;2023-06-19T01:36:57;0.50;;;0.50;;
16520;SDS011;8373;48.110;11.522;2023-06-19T01:40:24;0.70;;;0.70;;
16520;SDS011;8373;48.110;11.522;2023-06-19T01:43:10;0.50;;;0.50;;
16520;SDS011;8373;48.110;11.522;2023-06-19T01:46:26;0.80;;;0.80;;
16520;SDS011;8373;48.110;11.522;2023-06-19T01:49:08;0.87;;;0.87;;
16520;SDS011;8373;48.110;11.522;2023-06-19T01:52:30;0.70;;;0.70;;
16520;SDS011;8373;48.110;11.522;2023-06-19T01:55:49;0.60;;;0.60;;
16520;SDS011;8373;48.110;11.522;2023-06-19T01:58:39;0.80;;;0.80;;
16520;SDS011;8373;48.110;11.522;2023-06-19T02:01:17;0.70;;;0.70;;
16520;SDS011;8373;48.110;11.522;2023-06-19T02:03:53;0.67;;;0.67;;
16520;SDS011;8373;48.110;11.522;2023-06-19T02:06:46;0.60;;;0.60;;
16520;SDS011;8373;48.110;11.522;2023-06-19T02:09:56;0.97;;;0.97;;
16520;SDS011;8373;48.110;11.522;2023-06-19T02:16:26;1.00;;;1.00;;
16520;SDS011;8373;48.110;11.522;2023-06-19T02:18:58;1.07;;;1.07;;
16520;SDS011;8373;48.110;11.522;2023-06-19T02:22:09;0.63;;;0.63;;
16520;SDS011;8373;48.110;11.522;2023-06-19T04:06:17;0.60;;;0.60;;
16520;SDS011;8373;48.110;11.522;2023-06-19T04:08:53;1.20;;;1.20;;
16520;SDS011;8373;48.110;11.522;2023-06-19T04:11:23;0.87;;;0.87;;
16520;SDS011;8373;48.110;11.522;2023-06-19T04:13:56;0.90;;;0.90;;
16520;SDS011;8373;48.110;11.522;2023-06-19T04:16:30;0.60;;;0.60;;
16520;SDS011;8373;48.110;11.522;2023-06-19T04:19:02;0.70;;;0.70;;
16520;SDS011;8373;48.110;11.522;2023-06-19T04:21:34;0.83;;;0.83;;
16520;SDS011;8373;48.110;11.522;2023-06-19T04:24:10;0.80;;;0.80;;
16520;SDS011;8373;48.110;11.522;2023-06-19T04:26:39;1.00;;;1.00;;
16520;SDS011;8373;48.110;11.522;2023-06-19T04:29:13;0.80;;;0.80;;
16520;SDS011;8373;48.110;11.522;2023-06-19T04:32:26;1.17;;;1.17;;
16520;SDS011;8373;48.110;11.522;2023-06-19T04:38:42;0.70;;;0.70;;
16520;SDS011;8373;48.110;11.522;2023-06-19T04:42:19;0.90;;;0.90;;
16520;SDS011;8373;48.110;11.522;2023-06-19T04:46:03;1.00;;;1.00;;
16520;SDS011;8373;48.110;11.522;2023-06-19T04:49:26;1.07;;;1.07;;
16520;SDS011;8373;48.110;11.522;2023-06-19T05:09:49;0.80;;;0.80;;
16520;SDS011;8373;48.110;11.522;2023-06-19T05:13:14;1.00;;;1.00;;
16520;SDS011;8373;48.110;11.522;2023-06-19T05:16:40;0.93;;;0.93;;
16520;SDS011;8373;48.110;11.522;2023-06-19T05:23:19;1.10;;;1.10;;
16520;SDS011;8373;48.110;11.522;2023-06-19T05:25:51;0.90;;;0.90;;
16520;SDS011;8373;48.110;11.522;2023-06-19T05:28:21;1.00;;;1.00;;
16520;SDS011;8373;48.110;11.522;2023-06-19T05:30:53;1.20;;;1.20;;
16520;SDS011;8373;48.110;11.522;2023-06-19T05:33:25;0.90;;;0.90;;
16520;SDS011;8373;48.110;11.522;2023-06-19T05:35:55;1.33;;;1.33;;
16520;SDS011;8373;48.110;11.522;2023-06-19T05:38:30;1.30;;;1.30;;
16520;SDS011;8373;48.110;11.522;2023-06-19T05:41:03;1.00;;;1.00;;
16520;SDS011;8373;48.110;11.522;2023-06-19T05:43:33;1.00;;;1.00;;
16520;SDS011;8373;48.110;11.522;2023-06-19T05:46:01;0.80;;;0.80;;
16520;SDS011;8373;48.110;11.522;2023-06-19T05:48:28;1.00;;;1.00;;
16520;SDS011;8373;48.110;11.522;2023-06-19T05:50:57;1.03;;;1.03;;
16520;SDS011;8373;48.110;11.522;2023-06-19T05:53:24;1.20;;;1.20;;
16520;SDS011;8373;48.110;11.522;2023-06-19T05:55:55;0.87;;;0.87;;
16520;SDS011;8373;48.110;11.522;2023-06-19T05:58:23;0.93;;;0.93;;
16520;SDS011;8373;48.110;11.522;2023-06-19T06:00:51;0.70;;;0.70;;
16520;SDS011;8373;48.110;11.522;2023-06-19T06:03:22;1.00;;;1.00;;
16520;SDS011;8373;48.110;11.522;2023-06-19T06:05:50;0.93;;;0.93;;
16520;SDS011;8373;48.110;11.522;2023-06-19T06:08:18;1.53;;;1.53;;
16520;SDS011;8373;48.110;11.522;2023-06-19T06:10:46;1.03;;;1.03;;
16520;SDS011;8373;48.110;11.522;2023-06-19T06:13:17;1.00;;;1.00;;
16520;SDS011;8373;48.110;11.522;2023-06-19T06:15:45;1.40;;;1.40;;
16520;SDS011;8373;48.110;11.522;2023-06-19T06:18:14;0.97;;;0.97;;
16520;SDS011;8373;48.110;11.522;2023-06-19T06:21:00;0.90;;;0.90;;
16520;SDS011;8373;48.110;11.522;2023-06-19T06:23:30;1.10;;;1.10;;
16520;SDS011;8373;48.110;11.522;2023-06-19T06:26:08;0.90;;;0.90;;
16520;SDS011;8373;48.110;11.522;2023-06-19T06:32:02;0.80;;;0.80;;
16520;SDS011;8373;48.110;11.522;2023-06-19T06:34:41;1.10;;;1.10;;
16520;SDS011;8373;48.110;11.522;2023-06-19T06:37:18;0.80;;;0.80;;
16520;SDS011;8373;48.110;11.522;2023-06-19T06:40:02;1.20;;;1.20;;
16520;SDS011;8373;48.110;11.522;2023-06-19T06:42:56;0.93;;;0.93;;
16520;SDS011;8373;48.110;11.522;2023-06-19T06:46:02;0.90;;;0.90;;
16520;SDS011;8373;48.110;11.522;2023-06-19T06:48:43;1.03;;;1.03;;
16520;SDS011;8373;48.110;11.522;2023-06-19T06:51:14;1.10;;;1.10;;
16520;SDS011;8373;48.110;11.522;2023-06-19T06:53:44;0.83;;;0.83;;
16520;SDS011;8373;48.110;11.522;2023-06-19T06:56:43;1.10;;;1.10;;
16520;SDS011;8373;48.110;11.522;2023-06-19T06:59:30;0.83;;;0.83;;
16520;SDS011;8373;48.110;11.522;2023-06-19T07:02:02;1.00;;;1.00;;
16520;SDS011;8373;48.110;11.522;2023-06-19T07:04:31;0.70;;;0.70;;
16520;SDS011;8373;48.110;11.522;2023-06-19T07:07:04;0.93;;;0.93;;
16520;SDS011;8373;48.110;11.522;2023-06-19T07:10:01;1.10;;;1.10;;
16520;SDS011;8373;48.110;11.522;2023-06-19T07:12:46;0.80;;;0.80;;
16520;SDS011;8373;48.110;11.522;2023-06-19T07:15:27;1.30;;;1.30;;
16520;SDS011;8373;48.110;11.522;2023-06-19T07:24:40;1.00;;;1.00;;
16520;SDS011;8373;48.110;11.522;2023-06-19T07:28:01;0.50;;;0.50;;
16520;SDS011;8373;48.110;11.522;2023-06-19T07:30:44;0.97;;;0.97;;
16520;SDS011;8373;48.110;11.522;2023-06-19T07:33:28;1.20;;;1.20;;
16520;SDS011;8373;48.110;11.522;2023-06-19T07:36:34;0.60;;;0.60;;
16520;SDS011;8373;48.110;11.522;2023-06-19T07:39:44;0.80;;;0.80;;
16520;SDS011;8373;48.110;11.522;2023-06-19T07:43:05;0.83;;;0.83;;
16520;SDS011;8373;48.110;11.522;2023-06-19T07:45:40;0.70;;;0.70;;
16520;SDS011;8373;48.110;11.522;2023-06-19T07:48:07;1.20;;;1.20;;
16520;SDS011;8373;48.110;11.522;2023-06-19T07:50:40;1.00;;;1.00;;
16520;SDS011;8373;48.110;11.522;2023-06-19T07:53:13;1.20;;;1.20;;
16520;SDS011;8373;48.110;11.522;2023-06-19T07:55:45;0.70;;;0.70;;
16520;SDS011;8373;48.110;11.522;2023-06-19T07:58:28;1.10;;;1.10;;
16520;SDS011;8373;48.110;11.522;2023-06-19T08:01:08;1.03;;;1.03;;
16520;SDS011;8373;48.110;11.522;2023-06-19T08:03:42;1.20;;;1.20;;
16520;SDS011;8373;48.110;11.522;2023-06-19T08:06:28;1.00;;;1.00;;
16520;SDS011;8373;48.110;11.522;2023-06-19T08:09:11;0.90;;;0.90;;
16520;SDS011;8373;48.110;11.522;2023-06-19T08:11:51;1.10;;;1.10;;
16520;SDS011;8373;48.110;11.522;2023-06-19T08:14:25;0.80;;;0.80;;
16520;SDS011;8373;48.110;11.522;2023-06-19T08:16:58;1.30;;;1.30;;
16520;SDS011;8373;48.110;11.522;2023-06-19T08:19:34;1.03;;;1.03;;
16520;SDS011;8373;48.110;11.522;2023-06-19T08:22:09;1.27;;;1.27;;
16520;SDS011;8373;48.110;11.522;2023-06-19T08:28:06;1.20;;;1.20;;
16520;SDS011;8373;48.110;11.522;2023-06-19T08:30:45;0.90;;;0.90;;
16520;SDS011;8373;48.110;11.522;2023-06-19T08:33:20;0.80;;;0.80;;
16520;SDS011;8373;48.110;11.522;2023-06-19T08:36:09;0.97;;;0.97;;
16520;SDS011;8373;48.110;11.522;2023-06-19T08:38:43;1.13;;;1.13;;
16520;SDS011;8373;48.110;11.522;2023-06-19T08:41:16;1.03;;;1.03;;
16520;SDS011;8373;48.110;11.522;2023-06-19T08:44:00;0.73;;;0.73;;
16520;SDS011;8373;48.110;11.522;2023-06-19T08:46:44;0.80;;;0.80;;
16520;SDS011;8373;48.110;11.522;2023-06-19T08:49:19;0.70;;;0.70;;
16520;SDS011;8373;48.110;11.522;2023-06-19T08:51:56;0.80;;;0.80;;
16520;SDS011;8373;48.110;11.522;2023-06-19T08:54:38;0.90;;;0.90;;
16520;SDS011;8373;48.110;11.522;2023-06-19T08:57:36;0.93;;;0.93;;
16520;SDS011;8373;48.110;11.522;2023-06-19T09:00:22;0.77;;;0.77;;
16520;SDS011;8373;48.110;11.522;2023-06-19T09:03:10;1.17;;;1.17;;
16520;SDS011;8373;48.110;11.522;2023-06-19T09:05:49;1.00;;;1.00;;
16520;SDS011;8373;48.110;11.522;2023-06-19T09:08:31;0.60;;;0.60;;
16520;SDS011;8373;48.110;11.522;2023-06-19T09:11:06;0.90;;;0.90;;
16520;SDS011;8373;48.110;11.522;2023-06-19T09:13:44;0.60;;;0.60;;
16520;SDS011;8373;48.110;11.522;2023-06-19T09:16:39;0.87;;;0.87;;
16520;SDS011;8373;48.110;11.522;2023-06-19T09:19:11;0.70;;;0.70;;
16520;SDS011;8373;48.110;11.522;2023-06-19T09:22:00;0.80;;;0.80;;
16520;SDS011;8373;48.110;11.522;2023-06-19T09:25:13;0.70;;;0.70;;
16520;SDS011;8373;48.110;11.522;2023-06-19T09:28:39;1.13;;;1.13;;
16520;SDS011;8373;48.110;11.522;2023-06-19T09:31:37;0.83;;;0.83;;
16520;SDS011;8373;48.110;11.522;2023-06-19T09:35:04;0.90;;;0.90;;
16520;SDS011;8373;48.110;11.522;2023-06-19T09:38:03;0.73;;;0.73;;
16520;SDS011;8373;48.110;11.522;2023-06-19T09:41:26;1.00;;;1.00;;
16520;SDS011;8373;48.110;11.522;2023-06-19T09:44:15;0.87;;;0.87;;
16520;SDS011;8373;48.110;11.522;2023-06-19T09:46:48;0.90;;;0.90;;
16520;SDS011;8373;48.110;11.522;2023-06-19T09:49:21;0.83;;;0.83;;
16520;SDS011;8373;48.110;11.522;2023-06-19T09:52:03;0.80;;;0.80;;
16520;SDS011;8373;48.110;11.522;2023-06-19T09:54:39;1.00;;;1.00;;
16520;SDS011;8373;48.110;11.522;2023-06-19T09:57:22;0.93;;;0.93;;
16520;SDS011;8373;48.110;11.522;2023-06-19T09:59:55;1.10;;;1.10;;
16520;SDS011;8373;48.110;11.522;2023-06-19T10:02:37;0.50;;;0.50;;
16520;SDS011;8373;48.110;11.522;2023-06-19T10:05:15;1.00;;;1.00;;
16520;SDS011;8373;48.110;11.522;2023-06-19T10:08:01;0.60;;;0.60;;
16520;SDS011;8373;48.110;11.522;2023-06-19T10:10:37;0.90;;;0.90;;
16520;SDS011;8373;48.110;11.522;2023-06-19T10:13:19;0.70;;;0.70;;
16520;SDS011;8373;48.110;11.522;2023-06-19T10:16:01;0.80;;;0.80;;
16520;SDS011;8373;48.110;11.522;2023-06-19T10:18:31;0.90;;;0.90;;
16520;SDS011;8373;48.110;11.522;2023-06-19T10:21:22;0.80;;;0.80;;
16520;SDS011;8373;48.110;11.522;2023-06-19T10:28:49;0.77;;;0.77;;
16520;SDS011;8373;48.110;11.522;2023-06-19T10:31:19;0.80;;;0.80;;
16520;SDS011;8373;48.110;11.522;2023-06-19T10:34:29;1.10;;;1.10;;
16520;SDS011;8373;48.110;11.522;2023-06-19T10:38:13;1.10;;;1.10;;
16520;SDS011;8373;48.110;11.522;2023-06-19T10:41:50;0.80;;;0.80;;
16520;SDS011;8373;48.110;11.522;2023-06-19T10:51:48;0.90;;;0.90;;
16520;SDS011;8373;48.110;11.522;2023-06-19T10:54:44;0.60;;;0.60;;
16520;SDS011;8373;48.110;11.522;2023-06-19T10:57:51;0.97;;;0.97;;
16520;SDS011;8373;48.110;11.522;2023-06-19T11:00:50;0.87;;;0.87;;
16520;SDS011;8373;48.110;11.522;2023-06-19T11:03:49;0.90;;;0.90;;
16520;SDS011;8373;48.110;11.522;2023-06-19T11:06:26;0.67;;;0.67;;
16520;SDS011;8373;48.110;11.522;2023-06-19T11:12:37;1.00;;;1.00;;
16520;SDS011;8373;48.110;11.522;2023-06-19T11:15:10;0.97;;;0.97;;
16520;SDS011;8373;48.110;11.522;2023-06-19T11:18:34;0.77;;;0.77;;
16520;SDS011;8373;48.110;11.522;2023-06-19T11:21:19;1.40;;;1.40;;
16520;SDS011;8373;48.110;11.522;2023-06-19T11:23:49;1.13;;;1.13;;
16520;SDS011;8373;48.110;11.522;2023-06-19T11:37:39;0.73;;;0.73;;
16520;SDS011;8373;48.110;11.522;2023-06-19T11:40:24;0.80;;;0.80;;
16520;SDS011;8373;48.110;11.522;2023-06-19T11:43:59;0.80;;;0.80;;
16520;SDS011;8373;48.110;11.522;2023-06-19T11:47:24;0.90;;;0.90;;
16520;SDS011;8373;48.110;11.522;2023-06-19T11:50:27;0.87;;;0.87;;
16520;SDS011;8373;48.110;11.522;2023-06-19T11:53:02;0.70;;;0.70;;
16520;SDS011;8373;48.110;11.522;2023-06-19T11:55:33;0.90;;;0.90;;
16520;SDS011;8373;48.110;11.522;2023-06-19T11:58:09;0.77;;;0.77;;
16520;SDS011;8373;48.110;11.522;2023-06-19T12:00:53;0.80;;;0.80;;
16520;SDS011;8373;48.110;11.522;2023-06-19T12:03:41;0.47;;;0.47;;
16520;SDS011;8373;48.110;11.522;2023-06-19T12:06:35;0.90;;;0.90;;
16520;SDS011;8373;48.110;11.522;2023-06-19T12:09:04;1.00;;;1.00;;
16520;SDS011;8373;48.110;11.522;2023-06-19T12:11:40;0.60;;;0.60;;
16520;SDS011;8373;48.110;11.522;2023-06-19T12:14:21;0.67;;;0.67;;
16520;SDS011;8373;48.110;11.522;2023-06-19T12:17:24;0.40;;;0.40;;
16520;SDS011;8373;48.110;11.522;2023-06-19T12:20:11;0.73;;;0.73;;
16520;SDS011;8373;48.110;11.522;2023-06-19T12:23:32;0.40;;;0.40;;
16520;SDS011;8373;48.110;11.522;2023-06-19T12:26:28;0.97;;;0.97;;
16520;SDS011;8373;48.110;11.522;2023-06-19T12:29:15;0.97;;;0.97;;
16520;SDS011;8373;48.110;11.522;2023-06-19T12:32:41;0.90;;;0.90;;
16520;SDS011;8373;48.110;11.522;2023-06-19T12:35:47;0.57;;;0.57;;
16520;SDS011;8373;48.110;11.522;2023-06-19T12:42:04;0.60;;;0.60;;
16520;SDS011;8373;48.110;11.522;2023-06-19T12:45:22;0.40;;;0.40;;
16520;SDS011;8373;48.110;11.522;2023-06-19T12:48:43;0.80;;;0.80;;
16520;SDS011;8373;48.110;11.522;2023-06-19T12:52:29;0.50;;;0.50;;
16520;SDS011;8373;48.110;11.522;2023-06-19T12:55:16;0.90;;;0.90;;
16520;SDS011;8373;48.110;11.522;2023-06-19T12:57:56;0.40;;;0.40;;
16520;SDS011;8373;48.110;11.522;2023-06-19T13:01:21;0.80;;;0.80;;
16520;SDS011;8373;48.110;11.522;2023-06-19T13:03:55;0.77;;;0.77;;
16520;SDS011;8373;48.110;11.522;2023-06-19T13:06:39;0.67;;;0.67;;
16520;SDS011;8373;48.110;11.522;2023-06-19T13:10:15;0.70;;;0.70;;
16520;SDS011;8373;48.110;11.522;2023-06-19T13:12:52;1.03;;;1.03;;
16520;SDS011;8373;48.110;11.522;2023-06-19T13:16:24;0.60;;;0.60;;
16520;SDS011;8373;48.110;11.522;2023-06-19T13:19:21;0.60;;;0.60;;
16520;SDS011;8373;48.110;11.522;2023-06-19T13:21:48;0.80;;;0.80;;
16520;SDS011;8373;48.110;11.522;2023-06-19T13:24:58;0.60;;;0.60;;
16520;SDS011;8373;48.110;11.522;2023-06-19T13:28:06;0.53;;;0.53;;
16520;SDS011;8373;48.110;11.522;2023-06-19T13:30:47;0.70;;;0.70;;
16520;SDS011;8373;48.110;11.522;2023-06-19T13:33:41;0.80;;;0.80;;
16520;SDS011;8373;48.110;11.522;2023-06-19T13:36:15;0.70;;;0.70;;
16520;SDS011;8373;48.110;11.522;2023-06-19T13:38:45;0.87;;;0.87;;
16520;SDS011;8373;48.110;11.522;2023-06-19T13:41:18;0.50;;;0.50;;
16520;SDS011;8373;48.110;11.522;2023-06-19T13:47:28;0.57;;;0.57;;
16520;SDS011;8373;48.110;11.522;2023-06-19T13:50:06;0.50;;;0.50;;
16520;SDS011;8373;48.110;11.522;2023-06-19T13:52:45;0.73;;;0.73;;
16520;SDS011;8373;48.110;11.522;2023-06-19T13:55:22;0.70;;;0.70;;
16520;SDS011;8373;48.110;11.522;2023-06-19T13:58:04;0.63;;;0.63;;
16520;SDS011;8373;48.110;11.522;2023-06-19T14:00:33;0.80;;;0.80;;
16520;SDS011;8373;48.110;11.522;2023-06-19T14:03:09;0.70;;;0.70;;
16520;SDS011;8373;48.110;11.522;2023-06-19T14:05:44;0.80;;;0.80;;
16520;SDS011;8373;48.110;11.522;2023-06-19T14:08:32;0.90;;;0.90;;
16520;SDS011;8373;48.110;11.522;2023-06-19T14:11:08;0.83;;;0.83;;
16520;SDS011;8373;48.110;11.522;2023-06-19T14:13:55;0.87;;;0.87;;
16520;SDS011;8373;48.110;11.522;2023-06-19T14:16:50;0.83;;;0.83;;
16520;SDS011;8373;48.110;11.522;2023-06-19T14:19:43;1.07;;;1.07;;
16520;SDS011;8373;48.110;11.522;2023-06-19T14:22:15;0.90;;;0.90;;
16520;SDS011;8373;48.110;11.522;2023-06-19T14:24:50;0.97;;;0.97;;
16520;SDS011;8373;48.110;11.522;2023-06-19T14:27:25;0.80;;;0.80;;
16520;SDS011;8373;48.110;11.522;2023-06-19T14:30:34;1.00;;;1.00;;
16520;SDS011;8373;48.110;11.522;2023-06-19T14:33:10;1.10;;;1.10;;
16520;SDS011;8373;48.110;11.522;2023-06-19T14:35:49;0.90;;;0.90;;
16520;SDS011;8373;48.110;11.522;2023-06-19T14:38:20;1.20;;;1.20;;
16520;SDS011;8373;48.110;11.522;2023-06-19T14:40:50;1.00;;;1.00;;
16520;SDS011;8373;48.110;11.522;2023-06-19T14:43:29;0.83;;;0.83;;
16520;SDS011;8373;48.110;11.522;2023-06-19T14:46:02;0.83;;;0.83;;
16520;SDS011;8373;48.110;11.522;2023-06-19T14:48:41;1.13;;;1.13;;
16520;SDS011;8373;48.110;11.522;2023-06-19T14:51:18;1.00;;;1.00;;
16520;SDS011;8373;48.110;11.522;2023-06-19T14:53:55;0.70;;;0.70;;
16520;SDS011;8373;48.110;11.522;2023-06-19T14:56:43;0.77;;;0.77;;
16520;SDS011;8373;48.110;11.522;2023-06-19T14:59:51;1.60;;;1.60;;
16520;SDS011;8373;48.110;11.522;2023-06-19T15:02:46;0.90;;;0.90;;
16520;SDS011;8373;48.110;11.522;2023-06-19T15:05:58;1.07;;;1.07;;
16520;SDS011;8373;48.110;11.522;2023-06-19T15:09:27;1.30;;;1.30;;
16520;SDS011;8373;48.110;11.522;2023-06-19T15:12:02;1.10;;;1.10;;
16520;SDS011;8373;48.110;11.522;2023-06-19T15:15:18;1.00;;;1.00;;
16520;SDS011;8373;48.110;11.522;2023-06-19T15:18:36;1.23;;;1.23;;
16520;SDS011;8373;48.110;11.522;2023-06-19T15:22:01;0.93;;;0.93;;
16520;SDS011;8373;48.110;11.522;2023-06-19T15:39:08;1.03;;;1.03;;
16520;SDS011;8373;48.110;11.522;2023-06-19T15:42:29;1.30;;;1.30;;
16520;SDS011;8373;48.110;11.522;2023-06-19T15:46:01;1.20;;;1.20;;
16520;SDS011;8373;48.110;11.522;2023-06-19T15:48:53;1.23;;;1.23;;
16520;SDS011;8373;48.110;11.522;2023-06-19T15:55:35;1.20;;;1.20;;
16520;SDS011;8373;48.110;11.522;2023-06-19T15:58:51;1.60;;;1.60;;
16520;SDS011;8373;48.110;11.522;2023-06-19T16:02:18;1.40;;;1.40;;
16520;SDS011;8373;48.110;11.522;2023-06-19T16:34:50;1.23;;;1.23;;
16520;SDS011;8373;48.110;11.522;2023-06-19T16:37:46;1.27;;;1.27;;
16520;SDS011;8373;48.110;11.522;2023-06-19T16:41:03;1.00;;;1.00;;
16520;SDS011;8373;48.110;11.522;2023-06-19T16:44:15;1.30;;;1.30;;
16520;SDS011;8373;48.110;11.522;2023-06-19T16:47:47;1.83;;;1.83;;
16520;SDS011;8373;48.110;11.522;2023-06-19T16:51:16;1.17;;;1.17;;
16520;SDS011;8373;48.110;11.522;2023-06-19T16:54:07;1.33;;;1.33;;
16520;SDS011;8373;48.110;11.522;2023-06-19T16:56:50;0.80;;;0.80;;
16520;SDS011;8373;48.110;11.522;2023-06-19T16:59:48;1.23;;;1.23;;
16520;SDS011;8373;48.110;11.522;2023-06-19T17:02:49;1.03;;;1.03;;
16520;SDS011;8373;48.110;11.522;2023-06-19T17:05:34;1.50;;;1.50;;
16520;SDS011;8373;48.110;11.522;2023-06-19T17:35:28;0.93;;;0.93;;
16520;SDS011;8373;48.110;11.522;2023-06-19T17:38:21;1.20;;;1.20;;
16520;SDS011;8373;48.110;11.522;2023-06-19T17:41:08;1.13;;;1.13;;
16520;SDS011;8373;48.110;11.522;2023-06-19T17:43:48;1.03;;;1.03;;
16520;SDS011;8373;48.110;11.522;2023-06-19T17:46:32;1.10;;;1.10;;
16520;SDS011;8373;48.110;11.522;2023-06-19T17:49:04;1.00;;;1.00;;
16520;SDS011;8373;48.110;11.522;2023-06-19T17:51:42;1.20;;;1.20;;
16520;SDS011;8373;48.110;11.522;2023-06-19T17:54:55;1.13;;;1.13;;
16520;SDS011;8373;48.110;11.522;2023-06-19T17:58:26;1.07;;;1.07;;
16520;SDS011;8373;48.110;11.522;2023-06-19T18:01:51;1.27;;;1.27;;
16520;SDS011;8373;48.110;11.522;2023-06-19T18:05:01;1.20;;;1.20;;
16520;SDS011;8373;48.110;11.522;2023-06-19T18:11:50;1.40;;;1.40;;
16520;SDS011;8373;48.110;11.522;2023-06-19T18:14:19;1.03;;;1.03;;
16520;SDS011;8373;48.110;11.522;2023-06-19T18:16:51;1.13;;;1.13;;
16520;SDS011;8373;48.110;11.522;2023-06-19T18:19:23;1.30;;;1.30;;
16520;SDS011;8373;48.110;11.522;2023-06-19T18:21:54;1.00;;;1.00;;
16520;SDS011;8373;48.110;11.522;2023-06-19T18:24:23;1.00;;;1.00;;
16520;SDS011;8373;48.110;11.522;2023-06-19T18:26:54;1.27;;;1.27;;
16520;SDS011;8373;48.110;11.522;2023-06-19T18:29:24;1.40;;;1.40;;
16520;SDS011;8373;48.110;11.522;2023-06-19T18:31:56;1.40;;;1.40;;
16520;SDS011;8373;48.110;11.522;2023-06-19T18:34:25;1.27;;;1.27;;
16520;SDS011;8373;48.110;11.522;2023-06-19T18:36:52;1.30;;;1.30;;
16520;SDS011;8373;48.110;11.522;2023-06-19T18:39:28;1.20;;;1.20;;
16520;SDS011;8373;48.110;11.522;2023-06-19T18:42:07;1.77;;;1.77;;
16520;SDS011;8373;48.110;11.522;2023-06-19T18:44:38;1.80;;;1.80;;
16520;SDS011;8373;48.110;11.522;2023-06-19T18:47:08;1.50;;;1.50;;
16520;SDS011;8373;48.110;11.522;2023-06-19T18:49:36;1.43;;;1.43;;
16520;SDS011;8373;48.110;11.522;2023-06-19T18:52:05;1.40;;;1.40;;
16520;SDS011;8373;48.110;11.522;2023-06-19T18:54:35;1.17;;;1.17;;
16520;SDS011;8373;48.110;11.522;2023-06-19T18:57:14;1.10;;;1.10;;
16520;SDS011;8373;48.110;11.522;2023-06-19T18:59:42;1.20;;;1.20;;
16520;SDS011;8373;48.110;11.522;2023-06-19T19:02:11;1.50;;;1.50;;
16520;SDS011;8373;48.110;11.522;2023-06-19T19:04:41;1.50;;;1.50;;
16520;SDS011;8373;48.110;11.522;2023-06-19T19:07:10;1.47;;;1.47;;
16520;SDS011;8373;48.110;11.522;2023-06-19T19:09:37;1.53;;;1.53;;
16520;SDS011;8373;48.110;11.522;2023-06-19T19:12:07;1.30;;;1.30;;
16520;SDS011;8373;48.110;11.522;2023-06-19T19:14:38;1.40;;;1.40;;
16520;SDS011;8373;48.110;11.522;2023-06-19T19:17:07;1.43;;;1.43;;
16520;SDS011;8373;48.110;11.522;2023-06-19T19:19:34;1.50;;;1.50;;
16520;SDS011;8373;48.110;11.522;2023-06-19T19:22:01;1.30;;;1.30;;
16520;SDS011;8373;48.110;11.522;2023-06-19T19:24:29;1.43;;;1.43;;
16520;SDS011;8373;48.110;11.522;2023-06-19T19:26:56;1.33;;;1.33;;
16520;SDS011;8373;48.110;11.522;2023-06-19T19:29:24;1.30;;;1.30;;
16520;SDS011;8373;48.110;11.522;2023-06-19T19:31:52;1.37;;;1.37;;
16520;SDS011;8373;48.110;11.522;2023-06-19T19:34:20;1.23;;;1.23;;
16520;SDS011;8373;48.110;11.522;2023-06-19T19:36:49;1.30;;;1.30;;
16520;SDS011;8373;48.110;11.522;2023-06-19T19:39:23;1.13;;;1.13;;
16520;SDS011;8373;48.110;11.522;2023-06-19T19:41:53;1.00;;;1.00;;
16520;SDS011;8373;48.110;11.522;2023-06-19T19:44:24;1.03;;;1.03;;
16520;SDS011;8373;48.110;11.522;2023-06-19T19:46:54;1.50;;;1.50;;
16520;SDS011;8373;48.110;11.522;2023-06-19T19:49:23;1.70;;;1.70;;
16520;SDS011;8373;48.110;11.522;2023-06-19T19:51:51;1.37;;;1.37;;
16520;SDS011;8373;48.110;11.522;2023-06-19T19:54:24;1.27;;;1.27;;
16520;SDS011;8373;48.110;11.522;2023-06-19T19:56:59;1.43;;;1.43;;
16520;SDS011;8373;48.110;11.522;2023-06-19T19:59:42;1.30;;;1.30;;
16520;SDS011;8373;48.110;11.522;2023-06-19T20:02:13;1.30;;;1.30;;
16520;SDS011;8373;48.110;11.522;2023-06-19T20:04:42;1.20;;;1.20;;
16520;SDS011;8373;48.110;11.522;2023-06-19T20:07:14;1.03;;;1.03;;
16520;SDS011;8373;48.110;11.522;2023-06-19T20:09:45;1.30;;;1.30;;
16520;SDS011;8373;48.110;11.522;2023-06-19T20:12:14;1.13;;;1.13;;
16520;SDS011;8373;48.110;11.522;2023-06-19T20:14:44;1.60;;;1.60;;
16520;SDS011;8373;48.110;11.522;2023-06-19T20:17:16;1.43;;;1.43;;
16520;SDS011;8373;48.110;11.522;2023-06-19T20:19:45;1.47;;;1.47;;
16520;SDS011;8373;48.110;11.522;2023-06-19T20:22:14;1.33;;;1.33;;
16520;SDS011;8373;48.110;11.522;2023-06-19T20:24:43;1.13;;;1.13;;
16520;SDS011;8373;48.110;11.522;2023-06-19T20:27:12;1.50;;;1.50;;
16520;SDS011;8373;48.110;11.522;2023-06-19T20:29:41;1.77;;;1.77;;
16520;SDS011;8373;48.110;11.522;2023-06-19T20:32:20;1.50;;;1.50;;
16520;SDS011;8373;48.110;11.522;2023-06-19T20:34:56;1.30;;;1.30;;
16520;SDS011;8373;48.110;11.522;2023-06-19T20:37:23;1.50;;;1.50;;
16520;SDS011;8373;48.110;11.522;2023-06-19T20:40:00;1.60;;;1.60;;
16520;SDS011;8373;48.110;11.522;2023-06-19T20:42:34;1.80;;;1.80;;
16520;SDS011;8373;48.110;11.522;2023-06-19T20:45:05;1.60;;;1.60;;
16520;SDS011;8373;48.110;11.522;2023-06-19T20:47:41;1.03;;;1.03;;
16520;SDS011;8373;48.110;11.522;2023-06-19T20:50:12;1.63;;;1.63;;
16520;SDS011;8373;48.110;11.522;2023-06-19T20:53:02;1.30;;;1.30;;
16520;SDS011;8373;48.110;11.522;2023-06-19T20:55:30;1.47;;;1.47;;
16520;SDS011;8373;48.110;11.522;2023-06-19T20:58:01;1.00;;;1.00;;
16520;SDS011;8373;48.110;11.522;2023-06-19T21:00:33;1.53;;;1.53;;
16520;SDS011;8373;48.110;11.522;2023-06-19T21:03:05;1.40;;;1.40;;
16520;SDS011;8373;48.110;11.522;2023-06-19T21:05:36;1.17;;;1.17;;
16520;SDS011;8373;48.110;11.522;2023-06-19T21:08:05;1.40;;;1.40;;
16520;SDS011;8373;48.110;11.522;2023-06-19T21:10:41;1.53;;;1.53;;
16520;SDS011;8373;48.110;11.522;2023-06-19T21:13:11;1.60;;;1.60;;
16520;SDS011;8373;48.110;11.522;2023-06-19T21:15:41;1.50;;;1.50;;
16520;SDS011;8373;48.110;11.522;2023-06-19T21:18:13;2.17;;;2.17;;
16520;SDS011;8373;48.110;11.522;2023-06-19T21:20:48;1.40;;;1.40;;